sensor_id;sensor_type;location;lat;lon;timestamp;P1;durP1;ratioP1;P2;durP2;ratioP2
29774;SDS011;16676;51.202;6.774;2023-05-16T00:03:48;4.28;;;2.13;;
29774;SDS011;16676;51.202;6.774;2023-05-16T00:07:50;3.85;;;2.00;;
29774;SDS011;16676;51.202;6.774;2023-05-16T00:11:53;4.75;;;2.17;;
29774;SDS011;16676;51.202;6.774;2023-05-16T00:15:56;3.35;;;2.10;;
29774;SDS011;16676;51.202;6.774;2023-05-16T00:19:58;4.25;;;1.95;;
29774;SDS011;16676;51.202;6.774;2023-05-16T00:24:02;5.95;;;2.35;;
29774;SDS011;16676;51.202;6.774;2023-05-16T00:28:06;3.58;;;2.10;;
29774;SDS011;16676;51.202;6.774;2023-05-16T00:32:08;2.85;;;2.08;;
29774;SDS011;16676;51.202;6.774;2023-05-16T00:36:10;3.78;;;2.28;;
29774;SDS011;16676;51.202;6.774;2023-05-16T00:40:12;4.15;;;2.20;;
29774;SDS011;16676;51.202;6.774;2023-05-16T00:44:16;3.55;;;2.08;;
29774;SDS011;16676;51.202;6.774;2023-05-16T00:48:18;4.95;;;2.15;;
29774;SDS011;16676;51.202;6.774;2023-05-16T00:52:20;3.40;;;2.03;;
29774;SDS011;16676;51.202;6.774;2023-05-16T00:56:22;3.40;;;2.05;;
29774;SDS011;16676;51.202;6.774;2023-05-16T01:00:26;4.72;;;2.13;;
29774;SDS011;16676;51.202;6.774;2023-05-16T01:04:27;2.75;;;1.98;;
29774;SDS011;16676;51.202;6.774;2023-05-16T01:08:32;2.75;;;1.88;;
29774;SDS011;16676;51.202;6.774;2023-05-16T01:12:36;3.78;;;1.85;;
29774;SDS011;16676;51.202;6.774;2023-05-16T01:16:45;4.57;;;2.40;;
29774;SDS011;16676;51.202;6.774;2023-05-16T01:20:52;4.18;;;2.10;;
29774;SDS011;16676;51.202;6.774;2023-05-16T01:25:03;3.30;;;1.77;;
29774;SDS011;16676;51.202;6.774;2023-05-16T01:29:10;3.83;;;1.80;;
29774;SDS011;16676;51.202;6.774;2023-05-16T01:33:13;4.85;;;1.92;;
29774;SDS011;16676;51.202;6.774;2023-05-16T01:37:15;3.38;;;1.58;;
29774;SDS011;16676;51.202;6.774;2023-05-16T01:41:22;2.90;;;1.50;;
29774;SDS011;16676;51.202;6.774;2023-05-16T01:45:31;3.57;;;1.67;;
29774;SDS011;16676;51.202;6.774;2023-05-16T01:49:34;4.00;;;1.65;;
29774;SDS011;16676;51.202;6.774;2023-05-16T01:53:41;2.53;;;1.63;;
29774;SDS011;16676;51.202;6.774;2023-05-16T01:57:44;3.35;;;1.80;;
29774;SDS011;16676;51.202;6.774;2023-05-16T02:01:50;2.90;;;1.58;;
29774;SDS011;16676;51.202;6.774;2023-05-16T02:05:53;4.05;;;1.77;;
29774;SDS011;16676;51.202;6.774;2023-05-16T02:09:55;4.50;;;2.00;;
29774;SDS011;16676;51.202;6.774;2023-05-16T02:13:57;4.25;;;2.13;;
29774;SDS011;16676;51.202;6.774;2023-05-16T02:18:00;4.03;;;1.77;;
29774;SDS011;16676;51.202;6.774;2023-05-16T02:22:02;4.43;;;1.65;;
29774;SDS011;16676;51.202;6.774;2023-05-16T02:26:05;4.80;;;1.95;;
29774;SDS011;16676;51.202;6.774;2023-05-16T02:30:07;5.50;;;1.73;;
29774;SDS011;16676;51.202;6.774;2023-05-16T02:34:11;2.58;;;1.52;;
29774;SDS011;16676;51.202;6.774;2023-05-16T02:38:13;4.32;;;1.85;;
29774;SDS011;16676;51.202;6.774;2023-05-16T02:42:16;3.05;;;1.63;;
29774;SDS011;16676;51.202;6.774;2023-05-16T02:46:22;3.28;;;1.48;;
29774;SDS011;16676;51.202;6.774;2023-05-16T02:50:26;3.20;;;1.77;;
29774;SDS011;16676;51.202;6.774;2023-05-16T02:54:28;3.47;;;1.60;;
29774;SDS011;16676;51.202;6.774;2023-05-16T02:58:30;3.75;;;1.73;;
29774;SDS011;16676;51.202;6.774;2023-05-16T03:02:32;3.67;;;1.85;;
29774;SDS011;16676;51.202;6.774;2023-05-16T03:06:35;4.13;;;1.80;;
29774;SDS011;16676;51.202;6.774;2023-05-16T03:10:37;4.65;;;1.95;;
29774;SDS011;16676;51.202;6.774;2023-05-16T03:14:38;4.05;;;1.70;;
29774;SDS011;16676;51.202;6.774;2023-05-16T03:18:40;4.75;;;1.85;;
29774;SDS011;16676;51.202;6.774;2023-05-16T03:22:44;3.67;;;1.88;;
29774;SDS011;16676;51.202;6.774;2023-05-16T03:26:46;6.75;;;1.80;;
29774;SDS011;16676;51.202;6.774;2023-05-16T03:30:48;4.10;;;1.65;;
29774;SDS011;16676;51.202;6.774;2023-05-16T03:34:50;4.10;;;1.70;;
29774;SDS011;16676;51.202;6.774;2023-05-16T03:38:53;3.65;;;1.83;;
29774;SDS011;16676;51.202;6.774;2023-05-16T03:42:55;4.25;;;1.63;;
29774;SDS011;16676;51.202;6.774;2023-05-16T03:46:57;5.85;;;1.55;;
29774;SDS011;16676;51.202;6.774;2023-05-16T03:50:59;7.80;;;1.85;;
29774;SDS011;16676;51.202;6.774;2023-05-16T03:55:02;4.70;;;1.90;;
29774;SDS011;16676;51.202;6.774;2023-05-16T03:59:05;3.38;;;1.58;;
29774;SDS011;16676;51.202;6.774;2023-05-16T04:03:07;5.85;;;1.92;;
29774;SDS011;16676;51.202;6.774;2023-05-16T04:07:08;9.20;;;2.33;;
29774;SDS011;16676;51.202;6.774;2023-05-16T04:11:12;5.63;;;1.80;;
29774;SDS011;16676;51.202;6.774;2023-05-16T04:15:14;6.10;;;2.05;;
29774;SDS011;16676;51.202;6.774;2023-05-16T04:19:15;5.75;;;1.75;;
29774;SDS011;16676;51.202;6.774;2023-05-16T04:23:17;4.70;;;1.83;;
29774;SDS011;16676;51.202;6.774;2023-05-16T04:27:21;5.25;;;1.92;;
29774;SDS011;16676;51.202;6.774;2023-05-16T04:31:23;7.13;;;2.17;;
29774;SDS011;16676;51.202;6.774;2023-05-16T04:35:26;7.05;;;1.73;;
29774;SDS011;16676;51.202;6.774;2023-05-16T04:39:28;5.13;;;1.88;;
29774;SDS011;16676;51.202;6.774;2023-05-16T04:43:31;5.30;;;2.00;;
29774;SDS011;16676;51.202;6.774;2023-05-16T04:47:34;4.78;;;1.65;;
29774;SDS011;16676;51.202;6.774;2023-05-16T04:51:36;8.68;;;2.55;;
29774;SDS011;16676;51.202;6.774;2023-05-16T04:55:38;9.82;;;2.53;;
29774;SDS011;16676;51.202;6.774;2023-05-16T04:59:41;10.60;;;2.88;;
29774;SDS011;16676;51.202;6.774;2023-05-16T05:03:43;11.63;;;2.85;;
29774;SDS011;16676;51.202;6.774;2023-05-16T05:07:45;9.60;;;2.83;;
29774;SDS011;16676;51.202;6.774;2023-05-16T05:11:47;12.23;;;2.83;;
29774;SDS011;16676;51.202;6.774;2023-05-16T05:15:50;12.82;;;2.90;;
29774;SDS011;16676;51.202;6.774;2023-05-16T05:19:52;11.20;;;2.35;;
29774;SDS011;16676;51.202;6.774;2023-05-16T05:23:54;13.68;;;2.65;;
29774;SDS011;16676;51.202;6.774;2023-05-16T05:27:56;9.40;;;2.40;;
29774;SDS011;16676;51.202;6.774;2023-05-16T05:32:00;13.68;;;2.72;;
29774;SDS011;16676;51.202;6.774;2023-05-16T05:36:02;13.82;;;3.03;;
29774;SDS011;16676;51.202;6.774;2023-05-16T05:40:04;12.18;;;2.42;;
29774;SDS011;16676;51.202;6.774;2023-05-16T05:44:08;9.88;;;2.70;;
29774;SDS011;16676;51.202;6.774;2023-05-16T05:48:11;17.05;;;2.97;;
29774;SDS011;16676;51.202;6.774;2023-05-16T05:52:13;13.13;;;3.10;;
29774;SDS011;16676;51.202;6.774;2023-05-16T05:56:15;11.82;;;3.10;;
29774;SDS011;16676;51.202;6.774;2023-05-16T06:00:17;11.50;;;3.13;;
29774;SDS011;16676;51.202;6.774;2023-05-16T06:04:21;9.77;;;2.67;;
29774;SDS011;16676;51.202;6.774;2023-05-16T06:08:23;7.50;;;2.55;;
29774;SDS011;16676;51.202;6.774;2023-05-16T06:12:25;8.90;;;2.35;;
29774;SDS011;16676;51.202;6.774;2023-05-16T06:16:27;9.93;;;2.90;;
29774;SDS011;16676;51.202;6.774;2023-05-16T06:20:30;6.25;;;2.10;;
29774;SDS011;16676;51.202;6.774;2023-05-16T06:24:32;10.35;;;2.47;;
29774;SDS011;16676;51.202;6.774;2023-05-16T06:28:34;8.68;;;2.47;;
29774;SDS011;16676;51.202;6.774;2023-05-16T06:32:36;9.60;;;2.47;;
29774;SDS011;16676;51.202;6.774;2023-05-16T06:36:41;8.65;;;2.78;;
29774;SDS011;16676;51.202;6.774;2023-05-16T06:40:44;10.73;;;2.60;;
29774;SDS011;16676;51.202;6.774;2023-05-16T06:44:46;8.43;;;2.50;;
29774;SDS011;16676;51.202;6.774;2023-05-16T06:48:48;8.70;;;2.22;;
29774;SDS011;16676;51.202;6.774;2023-05-16T06:52:51;6.80;;;2.05;;
29774;SDS011;16676;51.202;6.774;2023-05-16T06:56:53;6.28;;;2.40;;
29774;SDS011;16676;51.202;6.774;2023-05-16T07:00:55;9.70;;;2.10;;
29774;SDS011;16676;51.202;6.774;2023-05-16T07:04:57;9.90;;;2.63;;
29774;SDS011;16676;51.202;6.774;2023-05-16T07:09:00;10.45;;;2.53;;
29774;SDS011;16676;51.202;6.774;2023-05-16T07:13:02;5.25;;;1.98;;
29774;SDS011;16676;51.202;6.774;2023-05-16T07:17:05;8.88;;;1.90;;
29774;SDS011;16676;51.202;6.774;2023-05-16T07:21:07;7.68;;;2.20;;
29774;SDS011;16676;51.202;6.774;2023-05-16T07:25:10;5.85;;;2.30;;
29774;SDS011;16676;51.202;6.774;2023-05-16T07:29:13;9.48;;;1.80;;
29774;SDS011;16676;51.202;6.774;2023-05-16T07:33:15;9.35;;;2.20;;
29774;SDS011;16676;51.202;6.774;2023-05-16T07:37:17;11.63;;;2.08;;
29774;SDS011;16676;51.202;6.774;2023-05-16T07:41:21;7.82;;;2.08;;
29774;SDS011;16676;51.202;6.774;2023-05-16T07:45:24;7.43;;;2.28;;
29774;SDS011;16676;51.202;6.774;2023-05-16T07:49:26;6.85;;;1.77;;
29774;SDS011;16676;51.202;6.774;2023-05-16T07:53:29;7.50;;;2.35;;
29774;SDS011;16676;51.202;6.774;2023-05-16T07:57:33;6.25;;;1.77;;
29774;SDS011;16676;51.202;6.774;2023-05-16T08:01:35;8.40;;;2.30;;
29774;SDS011;16676;51.202;6.774;2023-05-16T08:05:37;7.30;;;1.95;;
29774;SDS011;16676;51.202;6.774;2023-05-16T08:09:39;6.72;;;1.85;;
29774;SDS011;16676;51.202;6.774;2023-05-16T08:13:43;6.65;;;1.77;;
29774;SDS011;16676;51.202;6.774;2023-05-16T08:17:44;5.15;;;1.95;;
29774;SDS011;16676;51.202;6.774;2023-05-16T08:21:46;7.57;;;1.65;;
29774;SDS011;16676;51.202;6.774;2023-05-16T08:25:48;8.02;;;1.85;;
29774;SDS011;16676;51.202;6.774;2023-05-16T08:29:52;4.75;;;1.70;;
29774;SDS011;16676;51.202;6.774;2023-05-16T08:33:53;6.28;;;1.48;;
29774;SDS011;16676;51.202;6.774;2023-05-16T08:37:55;4.85;;;1.52;;
29774;SDS011;16676;51.202;6.774;2023-05-16T08:41:57;6.93;;;1.58;;
29774;SDS011;16676;51.202;6.774;2023-05-16T08:46:02;4.53;;;1.73;;
29774;SDS011;16676;51.202;6.774;2023-05-16T08:50:04;7.60;;;2.20;;
29774;SDS011;16676;51.202;6.774;2023-05-16T08:54:11;8.48;;;1.80;;
29774;SDS011;16676;51.202;6.774;2023-05-16T08:58:14;7.60;;;1.70;;
29774;SDS011;16676;51.202;6.774;2023-05-16T09:02:18;5.40;;;1.60;;
29774;SDS011;16676;51.202;6.774;2023-05-16T09:06:21;6.20;;;1.60;;
29774;SDS011;16676;51.202;6.774;2023-05-16T09:10:23;6.80;;;1.63;;
29774;SDS011;16676;51.202;6.774;2023-05-16T09:14:26;4.03;;;1.30;;
29774;SDS011;16676;51.202;6.774;2023-05-16T09:18:29;6.47;;;1.30;;
29774;SDS011;16676;51.202;6.774;2023-05-16T09:22:31;9.20;;;1.40;;
29774;SDS011;16676;51.202;6.774;2023-05-16T09:26:34;7.20;;;1.63;;
29774;SDS011;16676;51.202;6.774;2023-05-16T09:30:37;7.05;;;1.88;;
29774;SDS011;16676;51.202;6.774;2023-05-16T09:34:43;6.47;;;1.52;;
29774;SDS011;16676;51.202;6.774;2023-05-16T09:38:48;5.63;;;1.40;;
29774;SDS011;16676;51.202;6.774;2023-05-16T09:42:53;7.30;;;1.50;;
29774;SDS011;16676;51.202;6.774;2023-05-16T09:47:02;6.78;;;1.63;;
29774;SDS011;16676;51.202;6.774;2023-05-16T09:51:06;5.70;;;1.63;;
29774;SDS011;16676;51.202;6.774;2023-05-16T09:55:09;3.33;;;1.10;;
29774;SDS011;16676;51.202;6.774;2023-05-16T09:59:11;6.22;;;1.50;;
29774;SDS011;16676;51.202;6.774;2023-05-16T10:03:14;6.97;;;1.40;;
29774;SDS011;16676;51.202;6.774;2023-05-16T10:07:18;5.03;;;1.40;;
29774;SDS011;16676;51.202;6.774;2023-05-16T10:11:21;5.22;;;1.30;;
29774;SDS011;16676;51.202;6.774;2023-05-16T10:15:24;5.35;;;1.40;;
29774;SDS011;16676;51.202;6.774;2023-05-16T10:19:28;4.55;;;1.35;;
29774;SDS011;16676;51.202;6.774;2023-05-16T10:23:33;5.13;;;1.35;;
29774;SDS011;16676;51.202;6.774;2023-05-16T10:27:36;4.80;;;1.30;;
29774;SDS011;16676;51.202;6.774;2023-05-16T10:37:15;4.93;;;1.50;;
29774;SDS011;16676;51.202;6.774;2023-05-16T10:46:56;5.05;;;1.00;;
29774;SDS011;16676;51.202;6.774;2023-05-16T10:50:59;4.38;;;1.08;;
29774;SDS011;16676;51.202;6.774;2023-05-16T10:55:03;4.40;;;1.02;;
29774;SDS011;16676;51.202;6.774;2023-05-16T10:59:20;3.25;;;1.10;;
29774;SDS011;16676;51.202;6.774;2023-05-16T11:03:25;3.75;;;1.10;;
29774;SDS011;16676;51.202;6.774;2023-05-16T11:07:29;6.43;;;1.30;;
29774;SDS011;16676;51.202;6.774;2023-05-16T11:11:39;3.40;;;1.15;;
29774;SDS011;16676;51.202;6.774;2023-05-16T11:15:42;5.28;;;1.50;;
29774;SDS011;16676;51.202;6.774;2023-05-16T11:19:46;3.25;;;1.30;;
29774;SDS011;16676;51.202;6.774;2023-05-16T11:28:28;5.10;;;1.13;;
29774;SDS011;16676;51.202;6.774;2023-05-16T11:32:30;5.80;;;1.27;;
29774;SDS011;16676;51.202;6.774;2023-05-16T11:36:37;2.92;;;1.10;;
29774;SDS011;16676;51.202;6.774;2023-05-16T11:40:41;6.13;;;1.00;;
29774;SDS011;16676;51.202;6.774;2023-05-16T11:44:43;4.07;;;1.17;;
29774;SDS011;16676;51.202;6.774;2023-05-16T11:48:45;3.08;;;1.20;;
29774;SDS011;16676;51.202;6.774;2023-05-16T11:52:49;3.70;;;1.20;;
29774;SDS011;16676;51.202;6.774;2023-05-16T11:56:53;3.13;;;1.10;;
29774;SDS011;16676;51.202;6.774;2023-05-16T12:00:55;3.30;;;1.13;;
29774;SDS011;16676;51.202;6.774;2023-05-16T12:04:57;2.80;;;0.98;;
29774;SDS011;16676;51.202;6.774;2023-05-16T12:09:01;3.95;;;1.00;;
29774;SDS011;16676;51.202;6.774;2023-05-16T12:13:09;2.67;;;1.02;;
29774;SDS011;16676;51.202;6.774;2023-05-16T12:17:11;3.00;;;1.10;;
29774;SDS011;16676;51.202;6.774;2023-05-16T12:21:13;2.00;;;0.70;;
29774;SDS011;16676;51.202;6.774;2023-05-16T12:25:21;2.88;;;0.85;;
29774;SDS011;16676;51.202;6.774;2023-05-16T12:29:25;3.03;;;0.80;;
29774;SDS011;16676;51.202;6.774;2023-05-16T12:33:27;2.10;;;0.98;;
29774;SDS011;16676;51.202;6.774;2023-05-16T12:37:29;2.88;;;0.95;;
29774;SDS011;16676;51.202;6.774;2023-05-16T12:41:33;3.92;;;1.20;;
29774;SDS011;16676;51.202;6.774;2023-05-16T12:45:41;3.55;;;0.80;;
29774;SDS011;16676;51.202;6.774;2023-05-16T12:49:49;2.70;;;0.98;;
29774;SDS011;16676;51.202;6.774;2023-05-16T12:53:51;3.13;;;1.08;;
29774;SDS011;16676;51.202;6.774;2023-05-16T12:57:55;1.67;;;0.75;;
29774;SDS011;16676;51.202;6.774;2023-05-16T13:01:57;1.80;;;0.70;;
29774;SDS011;16676;51.202;6.774;2023-05-16T13:05:59;3.17;;;0.90;;
29774;SDS011;16676;51.202;6.774;2023-05-16T13:10:03;4.43;;;0.90;;
29774;SDS011;16676;51.202;6.774;2023-05-16T13:14:06;2.88;;;0.65;;
29774;SDS011;16676;51.202;6.774;2023-05-16T13:18:08;1.48;;;0.70;;
29774;SDS011;16676;51.202;6.774;2023-05-16T13:22:10;2.65;;;1.00;;
29774;SDS011;16676;51.202;6.774;2023-05-16T13:26:12;2.15;;;0.88;;
29774;SDS011;16676;51.202;6.774;2023-05-16T13:30:15;1.95;;;0.70;;
29774;SDS011;16676;51.202;6.774;2023-05-16T13:34:18;1.98;;;0.80;;
29774;SDS011;16676;51.202;6.774;2023-05-16T13:38:19;1.70;;;0.63;;
29774;SDS011;16676;51.202;6.774;2023-05-16T13:42:21;2.03;;;0.88;;
29774;SDS011;16676;51.202;6.774;2023-05-16T13:46:25;1.30;;;0.57;;
29774;SDS011;16676;51.202;6.774;2023-05-16T13:50:27;1.98;;;0.80;;
29774;SDS011;16676;51.202;6.774;2023-05-16T13:54:29;3.45;;;0.80;;
29774;SDS011;16676;51.202;6.774;2023-05-16T13:58:30;3.38;;;0.90;;
29774;SDS011;16676;51.202;6.774;2023-05-16T14:02:34;3.03;;;0.70;;
29774;SDS011;16676;51.202;6.774;2023-05-16T14:06:35;3.40;;;0.82;;
29774;SDS011;16676;51.202;6.774;2023-05-16T14:10:37;1.10;;;0.80;;
29774;SDS011;16676;51.202;6.774;2023-05-16T14:14:39;1.70;;;0.80;;
29774;SDS011;16676;51.202;6.774;2023-05-16T14:18:43;2.70;;;0.80;;
29774;SDS011;16676;51.202;6.774;2023-05-16T14:22:45;2.38;;;1.00;;
29774;SDS011;16676;51.202;6.774;2023-05-16T14:26:47;2.38;;;0.85;;
29774;SDS011;16676;51.202;6.774;2023-05-16T14:30:48;2.55;;;1.13;;
29774;SDS011;16676;51.202;6.774;2023-05-16T14:34:52;3.78;;;0.88;;
29774;SDS011;16676;51.202;6.774;2023-05-16T14:38:54;2.22;;;0.88;;
29774;SDS011;16676;51.202;6.774;2023-05-16T14:42:56;2.38;;;1.08;;
29774;SDS011;16676;51.202;6.774;2023-05-16T14:46:58;2.47;;;1.10;;
29774;SDS011;16676;51.202;6.774;2023-05-16T14:51:01;2.40;;;1.30;;
29774;SDS011;16676;51.202;6.774;2023-05-16T14:55:04;2.13;;;1.00;;
29774;SDS011;16676;51.202;6.774;2023-05-16T14:59:06;0.95;;;0.50;;
29774;SDS011;16676;51.202;6.774;2023-05-16T15:03:08;2.10;;;1.00;;
29774;SDS011;16676;51.202;6.774;2023-05-16T15:07:11;3.20;;;1.05;;
29774;SDS011;16676;51.202;6.774;2023-05-16T15:11:13;2.50;;;1.02;;
29774;SDS011;16676;51.202;6.774;2023-05-16T15:15:15;2.45;;;1.10;;
29774;SDS011;16676;51.202;6.774;2023-05-16T15:19:17;2.60;;;1.08;;
29774;SDS011;16676;51.202;6.774;2023-05-16T15:23:20;1.58;;;0.93;;
29774;SDS011;16676;51.202;6.774;2023-05-16T15:27:22;2.42;;;1.10;;
29774;SDS011;16676;51.202;6.774;2023-05-16T15:31:24;1.85;;;1.00;;
29774;SDS011;16676;51.202;6.774;2023-05-16T15:35:26;2.03;;;1.05;;
29774;SDS011;16676;51.202;6.774;2023-05-16T15:39:29;3.42;;;1.05;;
29774;SDS011;16676;51.202;6.774;2023-05-16T15:43:31;2.30;;;1.20;;
29774;SDS011;16676;51.202;6.774;2023-05-16T15:47:33;2.03;;;1.05;;
29774;SDS011;16676;51.202;6.774;2023-05-16T15:51:35;2.58;;;1.30;;
29774;SDS011;16676;51.202;6.774;2023-05-16T15:55:38;2.40;;;1.15;;
29774;SDS011;16676;51.202;6.774;2023-05-16T15:59:40;2.03;;;1.10;;
29774;SDS011;16676;51.202;6.774;2023-05-16T16:03:42;3.70;;;1.30;;
29774;SDS011;16676;51.202;6.774;2023-05-16T16:07:44;3.25;;;1.20;;
29774;SDS011;16676;51.202;6.774;2023-05-16T16:11:47;1.95;;;1.30;;
29774;SDS011;16676;51.202;6.774;2023-05-16T16:15:51;4.20;;;1.40;;
29774;SDS011;16676;51.202;6.774;2023-05-16T16:19:53;2.63;;;1.15;;
29774;SDS011;16676;51.202;6.774;2023-05-16T16:23:55;3.38;;;1.42;;
29774;SDS011;16676;51.202;6.774;2023-05-16T16:27:58;3.15;;;1.20;;
29774;SDS011;16676;51.202;6.774;2023-05-16T16:32:00;1.85;;;1.10;;
29774;SDS011;16676;51.202;6.774;2023-05-16T16:36:02;3.17;;;1.33;;
29774;SDS011;16676;51.202;6.774;2023-05-16T16:40:06;5.53;;;1.95;;
29774;SDS011;16676;51.202;6.774;2023-05-16T16:44:11;7.85;;;2.30;;
29774;SDS011;16676;51.202;6.774;2023-05-16T16:48:13;4.78;;;2.42;;
29774;SDS011;16676;51.202;6.774;2023-05-16T16:52:15;6.80;;;2.70;;
29774;SDS011;16676;51.202;6.774;2023-05-16T16:56:17;4.47;;;2.20;;
29774;SDS011;16676;51.202;6.774;2023-05-16T17:00:22;5.72;;;2.50;;
29774;SDS011;16676;51.202;6.774;2023-05-16T17:04:23;5.38;;;2.30;;
29774;SDS011;16676;51.202;6.774;2023-05-16T17:08:26;7.85;;;2.40;;
29774;SDS011;16676;51.202;6.774;2023-05-16T17:12:27;7.18;;;2.13;;
29774;SDS011;16676;51.202;6.774;2023-05-16T17:16:31;4.65;;;1.95;;
29774;SDS011;16676;51.202;6.774;2023-05-16T17:20:33;5.20;;;2.30;;
29774;SDS011;16676;51.202;6.774;2023-05-16T17:24:36;6.15;;;2.10;;
29774;SDS011;16676;51.202;6.774;2023-05-16T17:28:38;5.78;;;2.25;;
29774;SDS011;16676;51.202;6.774;2023-05-16T17:32:41;6.82;;;3.03;;
29774;SDS011;16676;51.202;6.774;2023-05-16T17:36:43;16.38;;;4.70;;
29774;SDS011;16676;51.202;6.774;2023-05-16T17:40:45;15.98;;;5.82;;
29774;SDS011;16676;51.202;6.774;2023-05-16T17:44:47;26.73;;;8.52;;
29774;SDS011;16676;51.202;6.774;2023-05-16T17:48:51;24.02;;;9.15;;
29774;SDS011;16676;51.202;6.774;2023-05-16T17:52:53;27.50;;;9.77;;
29774;SDS011;16676;51.202;6.774;2023-05-16T17:56:55;34.60;;;11.30;;
29774;SDS011;16676;51.202;6.774;2023-05-16T18:00:57;31.85;;;11.13;;
29774;SDS011;16676;51.202;6.774;2023-05-16T18:05:01;27.20;;;9.75;;
29774;SDS011;16676;51.202;6.774;2023-05-16T18:09:03;28.50;;;9.15;;
29774;SDS011;16676;51.202;6.774;2023-05-16T18:13:06;26.65;;;9.75;;
29774;SDS011;16676;51.202;6.774;2023-05-16T18:17:08;25.75;;;9.50;;
29774;SDS011;16676;51.202;6.774;2023-05-16T18:21:11;26.73;;;9.60;;
29774;SDS011;16676;51.202;6.774;2023-05-16T18:25:13;26.02;;;9.23;;
29774;SDS011;16676;51.202;6.774;2023-05-16T18:29:15;25.23;;;9.02;;
29774;SDS011;16676;51.202;6.774;2023-05-16T18:33:17;20.05;;;8.05;;
29774;SDS011;16676;51.202;6.774;2023-05-16T18:37:20;21.80;;;8.43;;
29774;SDS011;16676;51.202;6.774;2023-05-16T18:41:22;21.58;;;7.63;;
29774;SDS011;16676;51.202;6.774;2023-05-16T18:45:25;20.67;;;8.38;;
29774;SDS011;16676;51.202;6.774;2023-05-16T18:49:28;20.25;;;7.63;;
29774;SDS011;16676;51.202;6.774;2023-05-16T18:53:33;19.08;;;7.30;;
29774;SDS011;16676;51.202;6.774;2023-05-16T18:57:36;19.05;;;7.05;;
29774;SDS011;16676;51.202;6.774;2023-05-16T19:01:38;18.52;;;6.90;;
29774;SDS011;16676;51.202;6.774;2023-05-16T19:05:40;19.52;;;7.13;;
29774;SDS011;16676;51.202;6.774;2023-05-16T19:09:43;18.17;;;6.53;;
29774;SDS011;16676;51.202;6.774;2023-05-16T19:13:46;16.98;;;6.63;;
29774;SDS011;16676;51.202;6.774;2023-05-16T19:17:48;14.75;;;6.18;;
29774;SDS011;16676;51.202;6.774;2023-05-16T19:21:49;19.38;;;6.32;;
29774;SDS011;16676;51.202;6.774;2023-05-16T19:25:53;18.98;;;6.45;;
29774;SDS011;16676;51.202;6.774;2023-05-16T19:29:55;18.33;;;7.18;;
29774;SDS011;16676;51.202;6.774;2023-05-16T19:33:57;14.63;;;5.80;;
29774;SDS011;16676;51.202;6.774;2023-05-16T19:37:59;13.32;;;6.03;;
29774;SDS011;16676;51.202;6.774;2023-05-16T19:42:02;12.68;;;5.72;;
29774;SDS011;16676;51.202;6.774;2023-05-16T19:46:05;13.23;;;5.30;;
29774;SDS011;16676;51.202;6.774;2023-05-16T19:50:07;11.40;;;4.95;;
29774;SDS011;16676;51.202;6.774;2023-05-16T19:54:10;11.68;;;5.30;;
29774;SDS011;16676;51.202;6.774;2023-05-16T19:58:13;13.90;;;5.30;;
29774;SDS011;16676;51.202;6.774;2023-05-16T20:02:15;14.82;;;4.95;;
29774;SDS011;16676;51.202;6.774;2023-05-16T20:06:17;13.25;;;5.28;;
29774;SDS011;16676;51.202;6.774;2023-05-16T20:10:19;10.60;;;4.20;;
29774;SDS011;16676;51.202;6.774;2023-05-16T20:14:23;8.13;;;3.85;;
29774;SDS011;16676;51.202;6.774;2023-05-16T20:18:25;11.25;;;4.82;;
29774;SDS011;16676;51.202;6.774;2023-05-16T20:22:27;10.35;;;4.10;;
29774;SDS011;16676;51.202;6.774;2023-05-16T20:26:29;9.32;;;4.22;;
29774;SDS011;16676;51.202;6.774;2023-05-16T20:30:32;10.32;;;3.53;;
29774;SDS011;16676;51.202;6.774;2023-05-16T20:34:34;11.77;;;4.15;;
29774;SDS011;16676;51.202;6.774;2023-05-16T20:38:36;11.68;;;4.32;;
29774;SDS011;16676;51.202;6.774;2023-05-16T20:42:38;9.00;;;3.80;;
29774;SDS011;16676;51.202;6.774;2023-05-16T20:46:41;7.68;;;3.00;;
29774;SDS011;16676;51.202;6.774;2023-05-16T20:50:43;9.70;;;3.10;;
29774;SDS011;16676;51.202;6.774;2023-05-16T20:54:45;8.00;;;2.97;;
29774;SDS011;16676;51.202;6.774;2023-05-16T20:58:46;8.93;;;2.92;;
29774;SDS011;16676;51.202;6.774;2023-05-16T21:02:50;9.23;;;3.35;;
29774;SDS011;16676;51.202;6.774;2023-05-16T21:06:51;7.93;;;2.45;;
29774;SDS011;16676;51.202;6.774;2023-05-16T21:10:53;9.40;;;2.80;;
29774;SDS011;16676;51.202;6.774;2023-05-16T21:14:55;6.40;;;2.55;;
29774;SDS011;16676;51.202;6.774;2023-05-16T21:19:00;6.28;;;2.55;;
29774;SDS011;16676;51.202;6.774;2023-05-16T21:23:03;8.65;;;2.40;;
29774;SDS011;16676;51.202;6.774;2023-05-16T21:27:05;7.45;;;2.53;;
29774;SDS011;16676;51.202;6.774;2023-05-16T21:31:07;6.40;;;2.30;;
29774;SDS011;16676;51.202;6.774;2023-05-16T21:35:10;5.00;;;2.22;;
29774;SDS011;16676;51.202;6.774;2023-05-16T21:39:12;6.18;;;2.38;;
29774;SDS011;16676;51.202;6.774;2023-05-16T21:43:14;5.45;;;2.20;;
29774;SDS011;16676;51.202;6.774;2023-05-16T21:47:16;6.32;;;2.13;;
29774;SDS011;16676;51.202;6.774;2023-05-16T21:51:19;6.38;;;1.92;;
29774;SDS011;16676;51.202;6.774;2023-05-16T21:55:21;4.75;;;1.73;;
29774;SDS011;16676;51.202;6.774;2023-05-16T21:59:23;4.68;;;2.03;;
29774;SDS011;16676;51.202;6.774;2023-05-16T22:03:24;4.35;;;1.58;;
29774;SDS011;16676;51.202;6.774;2023-05-16T22:07:28;4.63;;;1.80;;
29774;SDS011;16676;51.202;6.774;2023-05-16T22:11:30;4.97;;;1.98;;
29774;SDS011;16676;51.202;6.774;2023-05-16T22:15:32;5.72;;;1.73;;
29774;SDS011;16676;51.202;6.774;2023-05-16T22:19:34;5.57;;;1.80;;
29774;SDS011;16676;51.202;6.774;2023-05-16T22:23:37;5.63;;;1.70;;
29774;SDS011;16676;51.202;6.774;2023-05-16T22:27:39;3.95;;;1.63;;
29774;SDS011;16676;51.202;6.774;2023-05-16T22:31:41;4.78;;;1.65;;
29774;SDS011;16676;51.202;6.774;2023-05-16T22:35:43;4.85;;;1.52;;
29774;SDS011;16676;51.202;6.774;2023-05-16T22:39:47;4.90;;;1.70;;
29774;SDS011;16676;51.202;6.774;2023-05-16T22:43:49;6.00;;;2.05;;
29774;SDS011;16676;51.202;6.774;2023-05-16T22:47:51;3.92;;;1.40;;
29774;SDS011;16676;51.202;6.774;2023-05-16T22:51:52;4.53;;;1.45;;
29774;SDS011;16676;51.202;6.774;2023-05-16T22:55:56;5.18;;;1.38;;
29774;SDS011;16676;51.202;6.774;2023-05-16T22:59:57;4.50;;;1.52;;
29774;SDS011;16676;51.202;6.774;2023-05-16T23:04:00;3.78;;;1.30;;
29774;SDS011;16676;51.202;6.774;2023-05-16T23:08:02;3.17;;;1.30;;
29774;SDS011;16676;51.202;6.774;2023-05-16T23:12:06;5.35;;;1.35;;
29774;SDS011;16676;51.202;6.774;2023-05-16T23:16:08;3.67;;;1.45;;
29774;SDS011;16676;51.202;6.774;2023-05-16T23:20:10;4.53;;;1.60;;
29774;SDS011;16676;51.202;6.774;2023-05-16T23:24:12;2.67;;;1.25;;
29774;SDS011;16676;51.202;6.774;2023-05-16T23:28:15;2.55;;;1.23;;
29774;SDS011;16676;51.202;6.774;2023-05-16T23:32:18;2.42;;;1.15;;
29774;SDS011;16676;51.202;6.774;2023-05-16T23:36:20;5.03;;;1.33;;
29774;SDS011;16676;51.202;6.774;2023-05-16T23:40:22;4.03;;;1.23;;
29774;SDS011;16676;51.202;6.774;2023-05-16T23:44:25;2.13;;;1.15;;
29774;SDS011;16676;51.202;6.774;2023-05-16T23:48:27;3.05;;;1.25;;
29774;SDS011;16676;51.202;6.774;2023-05-16T23:52:29;3.85;;;1.40;;
29774;SDS011;16676;51.202;6.774;2023-05-16T23:56:30;3.60;;;1.33;;
